createdAt,value
2019-02-22T00:01:14.804Z,79.65
2019-02-22T00:06:17.373Z,79.61
2019-02-22T00:11:19.556Z,79.53
2019-02-22T00:16:22.296Z,79.48
2019-02-22T00:21:24.465Z,79.44
2019-02-22T00:26:26.584Z,79.45
2019-02-22T00:31:28.726Z,79.32
2019-02-22T00:36:30.985Z,79.26
2019-02-22T00:41:33.954Z,79.26
2019-02-22T00:46:36.215Z,79.26
2019-02-22T00:51:38.400Z,79.26
2019-02-22T00:56:41.205Z,79.18
2019-02-22T01:01:43.440Z,79.09
2019-02-22T01:06:45.969Z,79.26
2019-02-22T01:11:48.667Z,79.19
2019-02-22T01:16:50.836Z,79.07
2019-02-22T01:21:53.004Z,79.02
2019-02-22T01:26:55.292Z,79.01
2019-02-22T01:31:59.411Z,79.15
2019-02-22T01:37:01.603Z,79.13
2019-02-22T01:42:03.887Z,79.21
2019-02-22T01:47:06.273Z,79.34
2019-02-22T01:52:08.879Z,79.37
2019-02-22T01:57:11.051Z,79.27
2019-02-22T02:02:13.367Z,79.24
2019-02-22T02:07:15.545Z,79.16
2019-02-22T02:12:18.272Z,79.25
2019-02-22T02:17:20.437Z,79.23
2019-02-22T02:22:22.942Z,79.21
2019-02-22T02:27:25.380Z,79.26
2019-02-22T02:32:27.528Z,79.24
2019-02-22T02:37:29.752Z,79.25
2019-02-22T02:42:32.280Z,79.24
2019-02-22T02:47:35.400Z,79.17
2019-02-22T02:52:37.908Z,79.08
2019-02-22T02:57:40.996Z,78.96
2019-02-22T03:02:43.178Z,78.85
2019-02-22T03:07:47.018Z,78.86
2019-02-22T03:12:49.777Z,78.86
2019-02-22T03:17:52.836Z,78.87
2019-02-22T03:22:55.367Z,78.80
2019-02-22T03:27:57.644Z,78.57
2019-02-22T03:32:59.846Z,78.57
2019-02-22T03:38:05.703Z,78.33
2019-02-22T03:43:07.759Z,78.00
2019-02-22T03:48:09.915Z,77.87
2019-02-22T03:53:15.687Z,77.52
2019-02-22T03:58:19.862Z,77.33
2019-02-22T04:03:22.229Z,77.20
2019-02-22T04:08:24.704Z,76.81
2019-02-22T04:13:27.574Z,76.47
2019-02-22T04:18:30.471Z,76.31
2019-02-22T04:23:32.703Z,75.97
2019-02-22T04:28:35.460Z,75.33
2019-02-22T04:33:37.991Z,75.05
2019-02-22T04:38:41.381Z,74.63
2019-02-22T04:43:44.073Z,74.68
2019-02-22T04:48:47.187Z,74.03
2019-02-22T04:53:49.980Z,74.06
2019-02-22T04:58:52.156Z,74.07
2019-02-22T05:03:54.282Z,74.05
2019-02-22T05:08:57.388Z,73.72
2019-02-22T05:13:59.642Z,72.92
2019-02-22T05:19:02.094Z,72.49
2019-02-22T05:24:04.239Z,72.75
2019-02-22T05:29:07.236Z,73.18
2019-02-22T05:34:09.427Z,72.44
2019-02-22T05:39:19.050Z,73.07
2019-02-22T05:44:15.751Z,72.85
2019-02-22T05:49:22.007Z,73.20
2019-02-22T05:54:23.995Z,73.28
2019-02-22T05:59:26.161Z,73.67
2019-02-22T06:04:28.903Z,73.66
2019-02-22T06:09:31.046Z,73.72
2019-02-22T06:14:33.236Z,73.60
2019-02-22T06:19:35.647Z,73.38
2019-02-22T06:24:37.819Z,73.03
2019-02-22T06:29:40.430Z,72.00
2019-02-22T06:34:42.649Z,72.18
2019-02-22T06:39:44.861Z,71.82
2019-02-22T06:44:47.873Z,71.91
2019-02-22T06:49:50.277Z,71.02
2019-02-22T06:54:53.351Z,70.67
2019-02-22T06:59:55.861Z,70.87
2019-02-22T07:04:58.020Z,69.22
2019-02-22T07:10:01.157Z,69.46
2019-02-22T07:15:04.625Z,69.01
2019-02-22T07:20:09.214Z,68.69
2019-02-22T07:25:11.515Z,67.81
2019-02-22T07:30:13.729Z,67.51
2019-02-22T07:35:16.424Z,66.71
2019-02-22T07:40:20.109Z,66.38
2019-02-22T07:45:22.808Z,66.51
2019-02-22T07:50:25.336Z,66.31
2019-02-22T07:55:27.653Z,66.72
2019-02-22T08:00:30.468Z,64.87
2019-02-22T08:05:33.057Z,59.53
2019-02-22T08:10:35.930Z,58.62
2019-02-22T08:15:38.386Z,55.38
2019-02-22T08:20:41.132Z,53.62
2019-02-22T08:25:43.457Z,52.26
2019-02-22T08:30:45.946Z,52.96
2019-02-22T08:35:49.642Z,53.36
2019-02-22T08:40:52.847Z,53.94
2019-02-22T08:45:56.128Z,54.56
2019-02-22T08:50:58.695Z,54.07
2019-02-22T08:56:01.127Z,53.63
2019-02-22T09:01:03.609Z,52.44
2019-02-22T09:06:06.783Z,50.60
2019-02-22T09:11:46.025Z,42.41
2019-02-22T09:16:48.263Z,48.34
2019-02-22T09:21:50.494Z,41.88
2019-02-22T09:26:53.064Z,41.73
2019-02-22T09:31:55.884Z,39.50
2019-02-22T09:36:58.760Z,38.67
2019-02-22T09:42:01.566Z,37.18
2019-02-22T09:47:04.792Z,35.87
2019-02-22T09:52:06.979Z,35.37
2019-02-22T09:57:10.188Z,32.84
2019-02-22T10:02:13.006Z,33.04
2019-02-22T10:07:15.778Z,32.30
2019-02-22T10:12:18.062Z,32.13
2019-02-22T10:17:20.319Z,30.68
2019-02-22T10:22:22.747Z,30.36
2019-02-22T10:27:24.937Z,28.90
2019-02-22T10:32:27.362Z,29.54
2019-02-22T10:37:30.130Z,28.91
2019-02-22T10:42:32.403Z,28.91
2019-02-22T10:47:35.305Z,27.94
2019-02-22T10:52:37.992Z,28.23
2019-02-22T10:57:41.049Z,27.80
2019-02-22T11:02:43.903Z,27.54
2019-02-22T11:07:46.684Z,27.23
2019-02-22T11:12:48.907Z,27.53
2019-02-22T11:17:51.278Z,27.03
2019-02-22T11:22:54.035Z,27.71
2019-02-22T11:27:56.425Z,27.99
2019-02-22T11:32:59.436Z,27.47
2019-02-22T11:38:01.975Z,27.03
2019-02-22T11:43:04.589Z,27.68
2019-02-22T11:48:09.451Z,27.62
2019-02-22T11:53:11.315Z,27.43
2019-02-22T11:58:13.603Z,27.48
2019-02-22T12:03:24.516Z,27.04
2019-02-22T12:08:21.664Z,27.62
2019-02-22T12:13:23.955Z,27.13
2019-02-22T12:18:26.257Z,26.99
2019-02-22T12:23:28.963Z,27.06
2019-02-22T12:28:33.004Z,27.29
2019-02-22T12:33:35.987Z,27.04
2019-02-22T12:38:38.191Z,26.42
2019-02-22T12:43:40.500Z,26.80
2019-02-22T12:48:42.724Z,26.18
2019-02-22T12:53:45.143Z,26.30
2019-02-22T12:58:48.492Z,26.51
2019-02-22T13:03:51.595Z,26.38
2019-02-22T13:08:53.754Z,25.98
2019-02-22T13:13:56.216Z,26.33
2019-02-22T13:18:59.063Z,25.71
2019-02-22T13:24:01.230Z,26.19
2019-02-22T13:29:04.962Z,26.25
2019-02-22T13:34:07.460Z,26.08
2019-02-22T13:39:10.203Z,26.62
2019-02-22T13:44:13.311Z,26.70
2019-02-22T13:49:15.483Z,26.04
2019-02-22T13:54:18.323Z,26.34
2019-02-22T13:59:20.475Z,26.38
2019-02-22T14:04:23.624Z,25.99
2019-02-22T14:09:25.819Z,25.62
2019-02-22T14:14:28.008Z,26.35
2019-02-22T14:19:30.800Z,26.41
2019-02-22T14:24:32.981Z,26.29
2019-02-22T14:29:35.112Z,27.05
2019-02-22T14:34:37.557Z,26.72
2019-02-22T14:39:40.157Z,27.14
2019-02-22T14:44:42.320Z,27.51
2019-02-22T14:49:44.965Z,27.93
2019-02-22T14:54:48.059Z,28.57
2019-02-22T14:59:50.526Z,28.91
2019-02-22T15:04:52.817Z,29.42
2019-02-22T15:09:55.722Z,29.57
2019-02-22T15:14:57.915Z,29.87
2019-02-22T15:20:00.508Z,29.61
2019-02-22T15:25:06.204Z,29.81
2019-02-22T15:30:09.447Z,29.88
2019-02-22T15:35:13.391Z,30.26
2019-02-22T15:40:16.067Z,30.63
2019-02-22T15:45:19.027Z,30.77
2019-02-22T15:50:22.742Z,31.07
2019-02-22T15:55:25.025Z,31.54
2019-02-22T16:00:29.031Z,31.45
2019-02-22T16:05:36.899Z,31.61
2019-02-22T16:10:39.264Z,31.87
2019-02-22T16:15:41.513Z,32.15
2019-02-22T16:20:44.006Z,32.36
2019-02-22T16:25:47.077Z,32.59
2019-02-22T16:30:49.287Z,32.54
2019-02-22T16:35:51.805Z,32.97
2019-02-22T16:40:54.014Z,33.25
2019-02-22T16:45:56.883Z,33.37
2019-02-22T16:51:00.079Z,33.45
2019-02-22T16:56:02.881Z,34.02
2019-02-22T17:01:05.604Z,34.21
2019-02-22T17:06:08.282Z,34.49
2019-02-22T17:11:11.583Z,34.78
2019-02-22T17:16:16.460Z,35.25
2019-02-22T17:21:18.112Z,35.62
2019-02-22T17:26:20.402Z,35.98
2019-02-22T17:31:22.812Z,36.08
2019-02-22T17:36:27.155Z,36.37
2019-02-22T17:41:29.622Z,36.45
2019-02-22T17:46:32.539Z,36.92
2019-02-22T17:51:35.219Z,36.95
2019-02-22T17:56:37.714Z,37.27
2019-02-22T18:01:39.866Z,37.44
2019-02-22T18:06:42.133Z,37.73
2019-02-22T18:11:44.863Z,37.83
2019-02-22T18:16:47.312Z,37.99
2019-02-22T18:22:09.230Z,38.22
2019-02-22T18:27:11.921Z,38.41
2019-02-22T18:32:14.710Z,38.60
2019-02-22T18:37:17.802Z,38.98
2019-02-22T18:42:20.589Z,39.05
2019-02-22T18:47:23.053Z,39.46
2019-02-22T18:52:25.544Z,39.60
2019-02-22T18:57:27.934Z,39.58
2019-02-22T19:02:30.092Z,39.81
2019-02-22T19:07:32.878Z,40.07
2019-02-22T19:12:35.511Z,40.37
2019-02-22T19:17:37.951Z,40.72
2019-02-22T19:22:40.704Z,41.05
2019-02-22T19:27:45.786Z,41.24
2019-02-22T19:32:48.516Z,41.63
2019-02-22T19:37:51.308Z,41.88
2019-02-22T19:42:53.840Z,41.96
2019-02-22T19:47:56.894Z,42.11
2019-02-22T19:53:00.596Z,42.70
2019-02-22T19:58:03.422Z,42.86
2019-02-22T20:03:06.724Z,43.31
2019-02-22T20:08:09.668Z,43.43
2019-02-22T20:13:11.851Z,43.49
2019-02-22T20:18:14.587Z,43.67
2019-02-22T20:23:18.493Z,43.77
2019-02-22T20:28:24.635Z,43.98
2019-02-22T20:33:26.918Z,43.96
2019-02-22T20:38:30.257Z,43.87
2019-02-22T20:43:32.687Z,44.05
2019-02-22T20:48:35.199Z,44.14
2019-02-22T20:53:37.378Z,43.71
2019-02-22T20:58:39.861Z,43.30
2019-02-22T21:03:42.332Z,42.91
2019-02-22T21:08:45.521Z,42.64
2019-02-22T21:13:48.404Z,42.41
2019-02-22T21:18:51.005Z,42.18
2019-02-22T21:23:53.625Z,41.95
2019-02-22T21:28:55.817Z,41.69
2019-02-22T21:34:01.025Z,40.65
2019-02-22T21:39:04.152Z,39.81
2019-02-22T21:44:08.491Z,40.01
2019-02-22T21:49:10.914Z,39.48
2019-02-22T21:54:14.143Z,39.61
2019-02-22T21:59:16.341Z,39.40
2019-02-22T22:04:18.840Z,39.24
2019-02-22T22:09:21.102Z,38.80
2019-02-22T22:14:23.946Z,39.78
2019-02-22T22:19:26.675Z,39.92
2019-02-22T22:24:28.827Z,40.21
2019-02-22T22:29:31.891Z,39.72
2019-02-22T22:34:34.236Z,40.74
2019-02-22T22:39:36.417Z,41.49
2019-02-22T22:44:38.520Z,41.40
2019-02-22T22:49:41.242Z,41.85
2019-02-22T22:54:43.535Z,41.82
2019-02-22T22:59:46.344Z,42.21
2019-02-22T23:04:49.026Z,42.22
2019-02-22T23:09:51.207Z,42.46
2019-02-22T23:14:54.205Z,42.63
2019-02-22T23:19:57.349Z,42.79
2019-02-22T23:24:59.518Z,43.07
2019-02-22T23:30:01.660Z,42.88
2019-02-22T23:35:04.504Z,43.21
2019-02-22T23:40:06.764Z,42.74
2019-02-22T23:45:09.443Z,42.77
2019-02-22T23:50:11.594Z,42.71
2019-02-22T23:55:14.339Z,42.82
